createdAt,value
2019-01-14T00:02:18.290Z,100.00
2019-01-14T00:04:55.508Z,100.00
2019-01-14T00:07:24.027Z,100.00
2019-01-14T00:09:58.010Z,100.00
2019-01-14T00:12:28.408Z,100.00
2019-01-14T00:14:59.032Z,100.00
2019-01-14T00:17:29.403Z,100.00
2019-01-14T00:20:04.597Z,100.00
2019-01-14T00:22:35.088Z,100.00
2019-01-14T00:25:09.888Z,100.00
2019-01-14T00:27:40.428Z,100.00
2019-01-14T00:30:13.923Z,100.00
2019-01-14T00:32:44.843Z,100.00
2019-01-14T00:35:15.300Z,100.00
2019-01-14T00:37:45.956Z,100.00
2019-01-14T00:40:18.414Z,100.00
2019-01-14T00:42:48.990Z,100.00
2019-01-14T00:45:21.991Z,100.00
2019-01-14T00:47:52.268Z,100.00
2019-01-14T00:50:22.597Z,100.00
2019-01-14T00:52:53.357Z,100.00
2019-01-14T00:55:23.739Z,100.00
2019-01-14T00:57:54.092Z,100.00
2019-01-14T01:00:27.625Z,100.00
2019-01-14T01:03:05.139Z,100.00
2019-01-14T01:05:36.262Z,100.00
2019-01-14T01:08:10.471Z,100.00
2019-01-14T01:10:44.692Z,100.00
2019-01-14T01:13:15.315Z,100.00
2019-01-14T01:15:45.681Z,100.00
2019-01-14T01:18:17.599Z,100.00
2019-01-14T01:20:51.370Z,100.00
2019-01-14T01:23:21.729Z,100.00
2019-01-14T01:25:52.049Z,100.00
2019-01-14T01:28:22.449Z,100.00
2019-01-14T01:30:57.390Z,100.00
2019-01-14T01:33:27.840Z,100.00
2019-01-14T01:35:58.438Z,100.00
2019-01-14T01:38:31.963Z,100.00
2019-01-14T01:41:02.387Z,100.00
2019-01-14T01:43:32.710Z,100.00
2019-01-14T01:46:03.119Z,100.00
2019-01-14T01:48:33.461Z,100.00
2019-01-14T01:51:07.620Z,100.00
2019-01-14T01:53:37.984Z,100.00
2019-01-14T01:56:09.150Z,100.00
2019-01-14T01:58:39.549Z,100.00
2019-01-14T02:01:09.935Z,100.00
2019-01-14T02:03:40.234Z,100.00
2019-01-14T02:06:10.618Z,100.00
2019-01-14T02:08:41.011Z,100.00
2019-01-14T02:11:11.376Z,100.00
2019-01-14T02:13:41.739Z,100.00
2019-01-14T02:16:12.216Z,100.00
2019-01-14T02:18:42.550Z,100.00
2019-01-14T02:21:12.879Z,100.00
2019-01-14T02:23:43.215Z,100.00
2019-01-14T02:26:13.611Z,100.00
2019-01-14T02:28:43.924Z,100.00
2019-01-14T02:31:14.321Z,100.00
2019-01-14T02:33:45.221Z,100.00
2019-01-14T02:36:17.784Z,100.00
2019-01-14T02:38:48.133Z,100.00
2019-01-14T02:41:18.564Z,100.00
2019-01-14T02:43:49.244Z,100.00
2019-01-14T02:46:22.955Z,100.00
2019-01-14T02:48:53.344Z,100.00
2019-01-14T02:51:23.629Z,100.00
2019-01-14T02:53:54.044Z,100.00
2019-01-14T02:56:24.402Z,100.00
2019-01-14T02:58:54.783Z,100.00
2019-01-14T03:01:26.836Z,100.00
2019-01-14T03:03:57.161Z,100.00
2019-01-14T03:06:33.686Z,100.00
2019-01-14T03:09:04.466Z,100.00
2019-01-14T03:11:34.761Z,100.00
2019-01-14T03:14:06.486Z,100.00
2019-01-14T03:16:54.123Z,100.00
2019-01-14T03:19:26.680Z,100.00
2019-01-14T03:21:56.994Z,100.00
2019-01-14T03:24:27.778Z,100.00
2019-01-14T03:26:58.181Z,100.00
2019-01-14T03:29:28.501Z,100.00
2019-01-14T03:31:58.895Z,100.00
2019-01-14T03:34:29.276Z,100.00
2019-01-14T03:37:05.480Z,100.00
2019-01-14T03:39:33.687Z,100.00
2019-01-14T03:42:04.298Z,100.00
2019-01-14T03:44:34.642Z,100.00
2019-01-14T03:47:07.738Z,100.00
2019-01-14T03:49:38.096Z,100.00
2019-01-14T03:52:08.443Z,100.00
2019-01-14T03:54:42.982Z,100.00
2019-01-14T03:57:13.814Z,100.00
2019-01-14T03:59:44.101Z,100.00
2019-01-14T04:02:14.568Z,100.00
2019-01-14T04:04:44.941Z,100.00
2019-01-14T04:07:15.387Z,100.00
2019-01-14T04:09:46.123Z,100.00
2019-01-14T04:12:16.454Z,100.00
2019-01-14T04:14:46.798Z,100.00
2019-01-14T04:17:17.128Z,100.00
2019-01-14T04:19:50.418Z,100.00
2019-01-14T04:22:21.021Z,100.00
2019-01-14T04:24:51.556Z,100.00
2019-01-14T04:27:21.850Z,100.00
2019-01-14T04:29:52.247Z,100.00
2019-01-14T04:32:22.650Z,100.00
2019-01-14T04:34:52.997Z,100.00
2019-01-14T04:37:23.355Z,100.00
2019-01-14T04:39:56.497Z,100.00
2019-01-14T04:42:26.871Z,100.00
2019-01-14T04:44:57.242Z,100.00
2019-01-14T04:47:27.699Z,100.00
2019-01-14T04:49:58.300Z,100.00
2019-01-14T04:52:28.702Z,100.00
2019-01-14T04:54:59.483Z,100.00
2019-01-14T04:57:30.315Z,100.00
2019-01-14T05:00:00.729Z,100.00
2019-01-14T05:02:31.083Z,100.00
2019-01-14T05:05:01.438Z,100.00
2019-01-14T05:07:31.771Z,100.00
2019-01-14T05:10:02.299Z,100.00
2019-01-14T05:12:32.623Z,100.00
2019-01-14T05:15:03.030Z,100.00
2019-01-14T05:17:33.400Z,100.00
2019-01-14T05:20:03.936Z,100.00
2019-01-14T05:22:37.150Z,100.00
2019-01-14T05:25:08.080Z,100.00
2019-01-14T05:27:38.501Z,100.00
2019-01-14T05:30:09.964Z,100.00
2019-01-14T05:32:43.140Z,100.00
2019-01-14T05:35:13.689Z,100.00
2019-01-14T05:37:44.007Z,100.00
2019-01-14T05:40:19.734Z,100.00
2019-01-14T05:42:50.177Z,100.00
2019-01-14T05:45:20.955Z,100.00
2019-01-14T05:47:53.198Z,100.00
2019-01-14T05:50:26.817Z,100.00
2019-01-14T05:52:57.147Z,100.00
2019-01-14T05:55:30.337Z,100.00
2019-01-14T05:58:02.215Z,100.00
2019-01-14T06:00:41.896Z,100.00
2019-01-14T06:03:12.585Z,100.00
2019-01-14T06:05:42.898Z,100.00
2019-01-14T06:08:13.328Z,100.00
2019-01-14T06:10:43.704Z,100.00
2019-01-14T06:13:14.054Z,100.00
2019-01-14T06:15:44.507Z,100.00
2019-01-14T06:18:14.926Z,100.00
2019-01-14T06:20:45.588Z,100.00
2019-01-14T06:23:18.232Z,100.00
2019-01-14T06:25:48.617Z,100.00
2019-01-14T06:28:18.998Z,100.00
2019-01-14T06:30:50.600Z,100.00
2019-01-14T06:33:21.062Z,100.00
2019-01-14T06:36:11.348Z,100.00
2019-01-14T06:38:46.022Z,100.00
2019-01-14T06:41:16.483Z,100.00
2019-01-14T06:43:46.833Z,100.00
2019-01-14T06:46:17.279Z,100.00
2019-01-14T06:48:47.724Z,100.00
2019-01-14T06:51:18.183Z,100.00
2019-01-14T06:53:48.658Z,100.00
2019-01-14T06:56:19.369Z,100.00
2019-01-14T06:58:50.078Z,100.00
2019-01-14T07:01:20.405Z,100.00
2019-01-14T07:03:50.748Z,100.00
2019-01-14T07:06:22.419Z,100.00
2019-01-14T07:08:54.717Z,100.00
2019-01-14T07:11:27.479Z,100.00
2019-01-14T07:13:57.977Z,100.00
2019-01-14T07:16:47.433Z,100.00
2019-01-14T07:19:17.905Z,100.00
2019-01-14T07:21:48.178Z,100.00
2019-01-14T07:24:18.553Z,100.00
2019-01-14T07:26:49.239Z,100.00
2019-01-14T07:29:19.904Z,100.00
2019-01-14T07:31:50.252Z,100.00
2019-01-14T07:34:20.679Z,100.00
2019-01-14T07:36:51.048Z,100.00
2019-01-14T07:39:21.779Z,100.00
2019-01-14T07:41:55.556Z,100.00
2019-01-14T07:44:29.479Z,100.00
2019-01-14T07:46:59.762Z,100.00
2019-01-14T07:49:32.254Z,100.00
2019-01-14T07:52:04.170Z,100.00
2019-01-14T07:54:39.072Z,100.00
2019-01-14T07:57:10.032Z,100.00
2019-01-14T07:59:40.375Z,100.00
2019-01-14T08:02:10.848Z,100.00
2019-01-14T08:04:43.536Z,100.00
2019-01-14T08:07:13.971Z,100.00
2019-01-14T08:09:44.484Z,100.00
2019-01-14T08:12:15.038Z,100.00
2019-01-14T08:14:45.464Z,100.00
2019-01-14T08:17:18.539Z,100.00
2019-01-14T08:19:48.940Z,100.00
2019-01-14T08:22:19.308Z,100.00
2019-01-14T08:24:51.669Z,100.00
2019-01-14T08:27:24.894Z,100.00
2019-01-14T08:29:56.783Z,100.00
2019-01-14T08:32:27.303Z,100.00
2019-01-14T08:34:57.726Z,100.00
2019-01-14T08:37:31.180Z,100.00
2019-01-14T08:40:01.872Z,100.00
2019-01-14T08:42:32.297Z,100.00
2019-01-14T08:45:03.597Z,100.00
2019-01-14T08:47:34.035Z,100.00
2019-01-14T08:50:08.106Z,100.00
2019-01-14T08:52:38.555Z,100.00
2019-01-14T08:55:09.485Z,100.00
2019-01-14T08:57:40.098Z,100.00
2019-01-14T09:00:13.883Z,100.00
2019-01-14T09:02:44.486Z,100.00
2019-01-14T09:05:15.274Z,100.00
2019-01-14T09:07:48.411Z,100.00
2019-01-14T09:10:21.972Z,100.00
2019-01-14T09:12:52.397Z,100.00
2019-01-14T09:15:22.807Z,100.00
2019-01-14T09:17:53.172Z,100.00
2019-01-14T09:20:24.780Z,100.00
2019-01-14T09:22:55.318Z,100.00
2019-01-14T09:25:25.728Z,100.00
2019-01-14T09:27:56.133Z,100.00
2019-01-14T09:30:27.207Z,100.00
2019-01-14T09:32:57.542Z,100.00
2019-01-14T09:35:28.022Z,100.00
2019-01-14T09:37:58.468Z,100.00
2019-01-14T09:40:28.975Z,100.00
2019-01-14T09:42:59.361Z,100.00
2019-01-14T09:45:30.605Z,100.00
2019-01-14T09:48:01.053Z,100.00
2019-01-14T09:50:31.427Z,100.00
2019-01-14T09:53:01.886Z,100.00
2019-01-14T09:55:33.105Z,100.00
2019-01-14T09:58:03.636Z,100.00
2019-01-14T10:00:34.052Z,100.00
2019-01-14T10:03:05.191Z,100.00
2019-01-14T10:05:35.587Z,100.00
2019-01-14T10:08:06.119Z,100.00
2019-01-14T10:10:38.592Z,100.00
2019-01-14T10:13:08.985Z,100.00
2019-01-14T10:15:41.830Z,100.00
2019-01-14T10:18:12.234Z,100.00
2019-01-14T10:20:42.691Z,100.00
2019-01-14T10:23:14.853Z,100.00
2019-01-14T10:25:45.637Z,100.00
2019-01-14T10:28:16.146Z,100.00
2019-01-14T10:30:46.576Z,100.00
2019-01-14T10:33:20.014Z,100.00
2019-01-14T10:35:53.718Z,100.00
2019-01-14T10:38:27.211Z,100.00
2019-01-14T10:40:57.624Z,100.00
2019-01-14T10:43:28.070Z,100.00
2019-01-14T10:45:58.355Z,100.00
2019-01-14T10:48:28.817Z,100.00
2019-01-14T10:50:59.263Z,100.00
2019-01-14T10:53:33.750Z,100.00
2019-01-14T10:56:04.921Z,100.00
2019-01-14T10:58:35.276Z,100.00
2019-01-14T11:01:08.588Z,100.00
2019-01-14T11:03:40.930Z,100.00
2019-01-14T11:06:13.582Z,100.00
2019-01-14T11:08:43.956Z,100.00
2019-01-14T11:11:14.600Z,100.00
2019-01-14T11:13:45.043Z,100.00
2019-01-14T11:16:15.422Z,100.00
2019-01-14T11:18:50.370Z,100.00
2019-01-14T11:21:20.823Z,100.00
2019-01-14T11:23:52.463Z,100.00
2019-01-14T11:26:22.982Z,100.00
2019-01-14T11:28:53.436Z,98.48
2019-01-14T11:31:23.972Z,97.79
2019-01-14T11:33:57.516Z,96.80
2019-01-14T11:36:27.943Z,96.10
2019-01-14T11:39:05.136Z,97.31
2019-01-14T11:41:35.029Z,96.12
2019-01-14T11:44:05.727Z,96.84
2019-01-14T11:46:37.604Z,95.29
2019-01-14T11:49:07.966Z,95.96
2019-01-14T11:51:38.301Z,95.75
2019-01-14T11:54:08.608Z,95.71
2019-01-14T11:56:39.224Z,96.98
2019-01-14T11:59:09.580Z,95.44
2019-01-14T12:01:39.915Z,97.50
2019-01-14T12:04:10.249Z,93.47
2019-01-14T12:06:40.629Z,92.92
2019-01-14T12:09:12.359Z,93.38
2019-01-14T12:11:43.424Z,96.91
2019-01-14T12:14:13.781Z,94.20
2019-01-14T12:16:44.164Z,92.96
2019-01-14T12:19:15.282Z,93.67
2019-01-14T12:21:45.795Z,94.35
2019-01-14T12:24:16.164Z,93.00
2019-01-14T12:26:46.684Z,92.27
2019-01-14T12:29:17.013Z,91.48
2019-01-14T12:31:47.472Z,90.53
2019-01-14T12:34:17.804Z,91.43
2019-01-14T12:36:48.193Z,92.13
2019-01-14T12:39:19.660Z,89.78
2019-01-14T12:41:51.150Z,89.65
2019-01-14T12:44:24.522Z,89.53
2019-01-14T12:46:55.300Z,88.36
2019-01-14T12:49:25.637Z,88.74
2019-01-14T12:51:56.800Z,87.82
2019-01-14T12:54:27.197Z,87.87
2019-01-14T12:56:59.045Z,88.41
2019-01-14T12:59:29.376Z,88.33
2019-01-14T13:02:00.075Z,89.63
2019-01-14T13:04:30.462Z,94.23
2019-01-14T13:07:00.990Z,100.00
2019-01-14T13:09:31.447Z,100.00
2019-01-14T13:12:01.902Z,100.00
2019-01-14T13:14:32.709Z,100.00
2019-01-14T13:17:03.517Z,100.00
2019-01-14T13:19:34.105Z,100.00
2019-01-14T13:22:04.655Z,100.00
2019-01-14T13:24:35.027Z,100.00
2019-01-14T13:27:05.987Z,100.00
2019-01-14T13:29:36.371Z,100.00
2019-01-14T13:32:06.694Z,100.00
2019-01-14T13:34:44.822Z,100.00
2019-01-14T13:37:14.653Z,100.00
2019-01-14T13:39:45.227Z,100.00
2019-01-14T13:42:15.607Z,100.00
2019-01-14T13:44:46.056Z,100.00
2019-01-14T13:47:16.454Z,100.00
2019-01-14T13:49:46.939Z,100.00
2019-01-14T13:52:17.412Z,100.00
2019-01-14T13:54:47.836Z,100.00
2019-01-14T13:57:18.274Z,100.00
2019-01-14T13:59:49.343Z,100.00
2019-01-14T14:02:19.816Z,100.00
2019-01-14T14:04:50.259Z,100.00
2019-01-14T14:07:22.767Z,100.00
2019-01-14T14:09:54.198Z,100.00
2019-01-14T14:12:25.578Z,100.00
2019-01-14T14:14:57.955Z,100.00
2019-01-14T14:17:28.419Z,100.00
2019-01-14T14:19:58.810Z,100.00
2019-01-14T14:22:29.284Z,99.88
2019-01-14T14:24:59.608Z,100.00
2019-01-14T14:27:30.028Z,100.00
2019-01-14T14:30:03.256Z,97.28
2019-01-14T14:32:33.704Z,100.00
2019-01-14T14:35:04.751Z,99.49
2019-01-14T14:37:35.153Z,98.79
2019-01-14T14:40:07.502Z,97.86
2019-01-14T14:42:37.980Z,95.27
2019-01-14T14:45:13.611Z,94.50
2019-01-14T14:47:43.940Z,94.73
2019-01-14T14:50:19.291Z,93.08
2019-01-14T14:52:49.756Z,92.41
2019-01-14T14:55:20.098Z,92.34
2019-01-14T14:57:50.578Z,90.18
2019-01-14T15:00:21.746Z,93.23
2019-01-14T15:02:52.191Z,93.51
2019-01-14T15:05:22.767Z,92.49
2019-01-14T15:07:53.155Z,94.25
2019-01-14T15:10:23.969Z,93.53
2019-01-14T15:12:54.434Z,94.95
2019-01-14T15:15:25.435Z,92.88
2019-01-14T15:17:56.037Z,93.89
2019-01-14T15:20:26.385Z,93.46
2019-01-14T15:22:56.791Z,94.97
2019-01-14T15:25:27.269Z,95.96
2019-01-14T15:27:59.091Z,96.45
2019-01-14T15:30:30.765Z,95.42
2019-01-14T15:33:02.400Z,96.83
2019-01-14T15:35:33.143Z,95.73
2019-01-14T15:38:03.549Z,96.13
2019-01-14T15:40:35.028Z,94.88
2019-01-14T15:43:05.375Z,95.71
2019-01-14T15:45:37.683Z,97.18
2019-01-14T15:48:08.226Z,98.10
2019-01-14T15:50:39.476Z,98.57
2019-01-14T15:53:10.051Z,99.25
2019-01-14T15:55:40.422Z,97.20
2019-01-14T15:58:11.306Z,97.07
2019-01-14T16:00:41.746Z,98.04
2019-01-14T16:03:12.248Z,98.18
2019-01-14T16:05:42.952Z,98.63
2019-01-14T16:08:13.497Z,98.38
2019-01-14T16:10:43.844Z,99.21
2019-01-14T16:13:16.994Z,99.92
2019-01-14T16:15:47.335Z,100.00
2019-01-14T16:18:17.704Z,100.00
2019-01-14T16:20:48.487Z,100.00
2019-01-14T16:23:20.706Z,100.00
2019-01-14T16:25:51.291Z,100.00
2019-01-14T16:28:21.712Z,99.64
2019-01-14T16:30:52.365Z,99.60
2019-01-14T16:33:23.117Z,100.00
2019-01-14T16:35:53.525Z,100.00
2019-01-14T16:38:23.901Z,99.02
2019-01-14T16:40:54.347Z,97.90
2019-01-14T16:43:25.303Z,98.58
2019-01-14T16:45:55.660Z,98.02
2019-01-14T16:48:26.086Z,98.09
2019-01-14T16:50:56.442Z,98.37
2019-01-14T16:53:27.282Z,98.12
2019-01-14T16:55:57.970Z,98.18
2019-01-14T16:58:28.444Z,98.82
2019-01-14T17:00:58.890Z,99.71
2019-01-14T17:03:29.245Z,98.19
2019-01-14T17:05:59.616Z,96.85
2019-01-14T17:08:30.066Z,97.68
2019-01-14T17:11:01.052Z,96.27
2019-01-14T17:13:31.728Z,96.20
2019-01-14T17:16:02.672Z,96.86
2019-01-14T17:18:33.101Z,96.26
2019-01-14T17:21:03.478Z,95.69
2019-01-14T17:23:33.753Z,95.89
2019-01-14T17:26:04.152Z,96.41
2019-01-14T17:28:34.497Z,96.32
2019-01-14T17:31:04.917Z,96.67
2019-01-14T17:33:35.305Z,97.17
2019-01-14T17:36:05.920Z,96.42
2019-01-14T17:38:36.615Z,97.10
2019-01-14T17:41:06.937Z,95.84
2019-01-14T17:43:37.425Z,96.54
2019-01-14T17:46:08.001Z,98.46
2019-01-14T17:48:38.337Z,97.82
2019-01-14T17:51:08.709Z,95.93
2019-01-14T17:53:39.043Z,96.36
2019-01-14T17:56:09.426Z,95.54
2019-01-14T17:58:39.786Z,97.08
2019-01-14T18:01:10.248Z,97.87
2019-01-14T18:03:41.609Z,97.79
2019-01-14T18:06:17.096Z,98.28
2019-01-14T18:08:47.854Z,96.19
2019-01-14T18:11:18.213Z,95.58
2019-01-14T18:13:49.804Z,95.67
2019-01-14T18:16:20.263Z,95.21
2019-01-14T18:18:50.610Z,96.46
2019-01-14T18:21:21.001Z,95.71
2019-01-14T18:23:52.039Z,96.05
2019-01-14T18:26:22.744Z,95.32
2019-01-14T18:28:53.191Z,95.30
2019-01-14T18:31:23.537Z,96.50
2019-01-14T18:33:53.926Z,94.58
2019-01-14T18:36:24.358Z,94.50
2019-01-14T18:38:54.807Z,94.84
2019-01-14T18:41:25.465Z,94.91
2019-01-14T18:43:57.140Z,93.37
2019-01-14T18:46:28.661Z,93.94
2019-01-14T18:48:59.006Z,94.79
2019-01-14T18:51:29.476Z,94.81
2019-01-14T18:54:00.389Z,91.94
2019-01-14T18:56:32.636Z,94.33
2019-01-14T18:59:05.835Z,93.22
2019-01-14T19:01:37.318Z,94.42
2019-01-14T19:04:14.915Z,94.29
2019-01-14T19:06:48.401Z,94.48
2019-01-14T19:09:18.732Z,93.90
2019-01-14T19:11:49.198Z,95.35
2019-01-14T19:14:19.666Z,94.11
2019-01-14T19:16:50.061Z,95.30
2019-01-14T19:19:20.486Z,95.47
2019-01-14T19:21:50.906Z,94.41
2019-01-14T19:24:21.275Z,95.06
2019-01-14T19:26:51.706Z,95.80
2019-01-14T19:29:22.029Z,98.67
2019-01-14T19:31:54.723Z,97.52
2019-01-14T19:34:25.118Z,97.96
2019-01-14T19:37:00.418Z,98.32
2019-01-14T19:39:32.048Z,99.47
2019-01-14T19:42:02.530Z,100.00
2019-01-14T19:44:32.979Z,100.00
2019-01-14T19:47:03.633Z,99.63
2019-01-14T19:49:34.009Z,100.00
2019-01-14T19:52:04.888Z,100.00
2019-01-14T19:54:35.246Z,100.00
2019-01-14T19:57:07.320Z,100.00
2019-01-14T19:59:37.751Z,100.00
2019-01-14T20:02:11.057Z,100.00
2019-01-14T20:04:41.543Z,100.00
2019-01-14T20:07:12.363Z,100.00
2019-01-14T20:09:42.776Z,100.00
2019-01-14T20:12:13.916Z,100.00
2019-01-14T20:14:45.225Z,100.00
2019-01-14T20:17:19.402Z,100.00
2019-01-14T20:20:02.325Z,100.00
2019-01-14T20:22:34.585Z,100.00
2019-01-14T20:25:07.838Z,100.00
2019-01-14T20:27:39.522Z,100.00
2019-01-14T20:30:23.644Z,100.00
2019-01-14T20:32:58.115Z,100.00
2019-01-14T20:35:55.958Z,100.00
2019-01-14T20:38:40.414Z,100.00
2019-01-14T20:41:17.588Z,100.00
2019-01-14T20:43:46.588Z,99.69
2019-01-14T20:46:21.062Z,100.00
2019-01-14T20:48:53.856Z,100.00
2019-01-14T20:51:31.659Z,99.82
2019-01-14T20:54:05.413Z,100.00
2019-01-14T20:56:39.600Z,100.00
2019-01-14T20:59:14.601Z,100.00
2019-01-14T21:01:51.105Z,100.00
2019-01-14T21:04:24.476Z,100.00
2019-01-14T21:06:56.725Z,100.00
2019-01-14T21:09:29.723Z,100.00
2019-01-14T21:12:00.884Z,98.91
2019-01-14T21:14:32.841Z,99.33
2019-01-14T21:17:03.261Z,98.21
2019-01-14T21:19:33.767Z,98.92
2019-01-14T21:22:04.668Z,98.26
2019-01-14T21:24:35.766Z,99.78
2019-01-14T21:27:06.819Z,100.00
2019-01-14T21:29:38.179Z,100.00
2019-01-14T21:32:08.589Z,100.00
2019-01-14T21:34:39.099Z,100.00
2019-01-14T21:37:09.509Z,100.00
2019-01-14T21:39:41.028Z,100.00
2019-01-14T21:42:11.439Z,100.00
2019-01-14T21:44:42.191Z,100.00
2019-01-14T21:47:12.796Z,100.00
2019-01-14T21:49:43.742Z,100.00
2019-01-14T21:52:14.216Z,100.00
2019-01-14T21:54:45.015Z,100.00
2019-01-14T21:57:15.582Z,100.00
2019-01-14T21:59:46.043Z,100.00
2019-01-14T22:02:16.926Z,100.00
2019-01-14T22:04:47.721Z,100.00
2019-01-14T22:07:18.661Z,100.00
2019-01-14T22:09:53.098Z,100.00
2019-01-14T22:12:31.279Z,100.00
2019-01-14T22:15:05.392Z,100.00
2019-01-14T22:17:36.888Z,100.00
2019-01-14T22:20:11.277Z,100.00
2019-01-14T22:22:44.283Z,100.00
2019-01-14T22:25:19.912Z,100.00
2019-01-14T22:27:57.900Z,100.00
2019-01-14T22:31:02.329Z,100.00
2019-01-14T22:34:11.749Z,100.00
2019-01-14T22:36:59.376Z,100.00
2019-01-14T22:39:51.720Z,100.00
2019-01-14T22:42:49.540Z,100.00
2019-01-14T22:45:46.354Z,100.00
2019-01-14T22:48:38.542Z,100.00
2019-01-14T22:51:15.843Z,100.00
2019-01-14T22:53:50.409Z,100.00
2019-01-14T22:56:30.501Z,100.00
2019-01-14T22:59:03.716Z,100.00
2019-01-14T23:01:45.641Z,100.00
2019-01-14T23:04:19.458Z,100.00
2019-01-14T23:06:56.076Z,100.00
2019-01-14T23:09:38.074Z,100.00
2019-01-14T23:12:14.285Z,100.00
2019-01-14T23:14:48.769Z,100.00
2019-01-14T23:17:19.706Z,100.00
2019-01-14T23:19:51.207Z,100.00
2019-01-14T23:22:21.556Z,100.00
2019-01-14T23:24:51.941Z,100.00
2019-01-14T23:27:22.869Z,100.00
2019-01-14T23:29:53.228Z,100.00
2019-01-14T23:32:23.594Z,100.00
2019-01-14T23:34:54.843Z,100.00
2019-01-14T23:37:25.227Z,100.00
2019-01-14T23:39:55.622Z,100.00
2019-01-14T23:42:26.917Z,100.00
2019-01-14T23:44:59.393Z,100.00
2019-01-14T23:47:31.164Z,100.00
2019-01-14T23:50:02.812Z,100.00
2019-01-14T23:52:33.315Z,100.00
2019-01-14T23:55:03.805Z,100.00
2019-01-14T23:57:34.161Z,100.00
